| time (UTC) | temp F | wind direction | speed MPH | gust MPH | rain 1hr in | rain 24hr in | rain mn in | humidity % | barometer mb |
| 20260508043441 | 38 | 274 | 0.0 | 0.0 | 0.00 | 0.00 | 0.00 | 97 | 1016.4 |
| 20260508042937 | 38 | 274 | 0.0 | 0.0 | 0.00 | 0.00 | 0.00 | 96 | 1016.3 |
| 20260508042436 | 38 | 274 | 0.0 | 0.0 | 0.00 | 0.00 | 0.00 | 96 | 1016.2 |
| 20260508041932 | 38 | 274 | 0.0 | 0.0 | 0.00 | 0.00 | 0.00 | 96 | 1016.3 |
| 20260508041428 | 38 | 274 | 0.0 | 0.0 | 0.00 | 0.00 | 0.00 | 96 | 1016.3 |
| 20260508040925 | 38 | 274 | 0.0 | 0.0 | 0.00 | 0.00 | 0.00 | 96 | 1016.1 |
| 20260508040423 | 38 | 274 | 0.0 | 0.0 | 0.00 | 0.00 | 0.00 | 95 | 1016.3 |
| 20260508035920 | 39 | 274 | 0.0 | 0.0 | 0.00 | 0.03 | 0.03 | 95 | 1016.1 |
| 20260508035417 | 39 | 274 | 0.0 | 0.0 | 0.00 | 0.03 | 0.03 | 95 | 1015.8 |
| 20260508034914 | 39 | 274 | 0.0 | 0.0 | 0.00 | 0.03 | 0.03 | 95 | 1016.1 |
| 20260508034412 | 39 | 274 | 0.0 | 0.0 | 0.00 | 0.03 | 0.03 | 95 | 1016.1 |
| 20260508033908 | 39 | 274 | 0.0 | 0.0 | 0.00 | 0.03 | 0.03 | 95 | 1016.2 |
| 20260508033406 | 40 | 274 | 0.0 | 0.0 | 0.00 | 0.03 | 0.03 | 94 | 1016.1 |
| 20260508032904 | 40 | 274 | 0.0 | 0.0 | 0.00 | 0.03 | 0.03 | 94 | 1016.0 |
| 20260508032401 | 40 | 274 | 0.0 | 0.0 | 0.00 | 0.03 | 0.03 | 94 | 1015.8 |
| 20260508031857 | 40 | 274 | 0.0 | 0.0 | 0.00 | 0.03 | 0.03 | 93 | 1016.0 |
| 20260508031355 | 40 | 274 | 0.0 | 0.0 | 0.00 | 0.03 | 0.03 | 93 | 1015.8 |
| 20260508030850 | 40 | 274 | 0.0 | 0.0 | 0.00 | 0.03 | 0.03 | 92 | 1015.7 |
| 20260508030348 | 41 | 274 | 0.0 | 0.0 | 0.00 | 0.03 | 0.03 | 91 | 1015.8 |
| 20260508025844 | 41 | 274 | 0.0 | 0.0 | 0.00 | 0.03 | 0.03 | 91 | 1015.7 |
| 20260508025341 | 41 | 274 | 0.0 | 0.0 | 0.00 | 0.03 | 0.03 | 91 | 1015.3 |
| 20260508024837 | 42 | 274 | 0.0 | 0.0 | 0.00 | 0.03 | 0.03 | 91 | 1015.7 |
| 20260508024334 | 42 | 274 | 0.0 | 0.0 | 0.00 | 0.03 | 0.03 | 90 | 1015.6 |
| 20260508023831 | 42 | 274 | 0.0 | 0.0 | 0.00 | 0.03 | 0.03 | 89 | 1015.4 |
| 20260508023328 | 42 | 274 | 0.0 | 0.0 | 0.00 | 0.03 | 0.03 | 88 | 1015.6 |
| 20260508022825 | 42 | 274 | 0.0 | 0.0 | 0.00 | 0.03 | 0.03 | 88 | 1015.3 |
| 20260508022320 | 43 | 274 | 0.0 | 0.0 | 0.00 | 0.03 | 0.03 | 88 | 1015.3 |
| 20260508021818 | 43 | 274 | 0.0 | 0.0 | 0.00 | 0.03 | 0.03 | 88 | 1015.1 |
| 20260508021313 | 43 | 274 | 0.0 | 0.0 | 0.00 | 0.03 | 0.03 | 87 | 1015.1 |
| 20260508020810 | 43 | 274 | 0.0 | 0.0 | 0.00 | 0.03 | 0.03 | 86 | 1015.0 |
| 20260508020308 | 44 | 274 | 0.0 | 0.0 | 0.00 | 0.03 | 0.03 | 85 | 1015.1 |
| 20260508015804 | 44 | 273 | 0.0 | 0.0 | 0.00 | 0.03 | 0.03 | 83 | 1015.0 |
| 20260508015305 | 44 | 273 | 0.0 | 0.0 | 0.00 | 0.03 | 0.03 | 82 | 1014.8 |
| 20260508014758 | 45 | 273 | 0.0 | 0.0 | 0.00 | 0.03 | 0.03 | 82 | 1014.8 |
| 20260508014255 | 45 | 273 | 0.0 | 0.0 | 0.00 | 0.03 | 0.03 | 81 | 1014.9 |
| 20260508013751 | 45 | 273 | 0.0 | 0.0 | 0.00 | 0.03 | 0.03 | 80 | 1014.8 |
| 20260508013248 | 46 | 273 | 0.0 | 0.0 | 0.00 | 0.03 | 0.03 | 81 | 1014.6 |
| 20260508012745 | 46 | 270 | 0.0 | 0.0 | 0.00 | 0.03 | 0.03 | 81 | 1014.6 |
| 20260508012242 | 46 | 270 | 0.0 | 0.0 | 0.00 | 0.03 | 0.03 | 78 | 1014.5 |
| 20260508011740 | 47 | 273 | 0.0 | 0.0 | 0.00 | 0.03 | 0.03 | 77 | 1014.5 |
| 20260508011237 | 47 | 274 | 0.0 | 0.0 | 0.00 | 0.03 | 0.03 | 77 | 1014.3 |
| 20260508010734 | 47 | 289 | 0.0 | 0.0 | 0.00 | 0.03 | 0.03 | 78 | 1014.4 |
| 20260508010232 | 48 | 283 | 0.0 | 0.0 | 0.00 | 0.03 | 0.03 | 76 | 1014.2 |
| 20260508005729 | 48 | 280 | 0.0 | 1.0 | 0.00 | 0.03 | 0.03 | 73 | 1014.1 |
| 20260508005226 | 48 | 268 | 1.0 | 1.0 | 0.00 | 0.03 | 0.03 | 76 | 1014.1 |
| 20260508004721 | 49 | 281 | 0.0 | 2.0 | 0.00 | 0.03 | 0.03 | 74 | 1014.0 |
| 20260508004218 | 49 | 271 | 0.0 | 0.0 | 0.00 | 0.03 | 0.03 | 74 | 1014.2 |
| 20260508003714 | 49 | 273 | 0.0 | 1.0 | 0.00 | 0.03 | 0.03 | 74 | 1013.9 |
| 20260508003212 | 50 | 273 | 1.0 | 1.0 | 0.00 | 0.03 | 0.03 | 71 | 1014.0 |
| 20260508002708 | 51 | 281 | 2.0 | 2.0 | 0.00 | 0.03 | 0.03 | 68 | 1013.7 |
| 20260508002206 | 51 | 271 | 1.0 | 2.0 | 0.00 | 0.03 | 0.03 | 69 | 1013.9 |
| 20260508001701 | 52 | 273 | 1.0 | 1.0 | 0.00 | 0.03 | 0.03 | 59 | 1013.5 |
| 20260508001157 | 53 | 287 | 0.0 | 1.0 | 0.00 | 0.03 | 0.03 | 57 | 1013.5 |
| 20260508000653 | 54 | 276 | 1.0 | 2.0 | 0.00 | 0.03 | 0.03 | 53 | 1013.5 |
| 20260508000151 | 55 | 308 | 0.0 | 1.0 | 0.00 | 0.03 | 0.03 | 52 | 1013.2 |
| 20260507235647 | 56 | 309 | 1.0 | 1.0 | 0.00 | 0.03 | 0.03 | 46 | 1013.2 |
| 20260507235145 | 56 | 301 | 0.0 | 1.0 | 0.00 | 0.03 | 0.03 | 49 | 1013.2 |
| 20260507234642 | 57 | 280 | 1.0 | 3.0 | 0.00 | 0.03 | 0.03 | 50 | 1013.2 |
| 20260507234138 | 58 | 330 | 0.0 | 2.0 | 0.00 | 0.03 | 0.03 | 45 | 1013.0 |
| 20260507233635 | 57 | 240 | 1.0 | 2.0 | 0.00 | 0.03 | 0.03 | 45 | 1013.2 |
| 20260507233133 | 58 | 302 | 1.0 | 2.0 | 0.00 | 0.03 | 0.03 | 45 | 1013.0 |
| 20260507232629 | 57 | 289 | 2.0 | 4.0 | 0.00 | 0.03 | 0.03 | 46 | 1013.0 |
| 20260507232127 | 58 | 322 | 1.0 | 2.0 | 0.00 | 0.03 | 0.03 | 47 | 1012.9 |
| 20260507231623 | 59 | 306 | 1.0 | 4.0 | 0.00 | 0.03 | 0.03 | 45 | 1012.8 |
| 20260507231120 | 59 | 325 | 0.0 | 1.0 | 0.00 | 0.03 | 0.03 | 44 | 1012.5 |
| 20260507230616 | 59 | 275 | 0.0 | 2.0 | 0.00 | 0.03 | 0.03 | 42 | 1012.8 |
| 20260507230114 | 59 | 288 | 2.0 | 2.0 | 0.00 | 0.03 | 0.03 | 46 | 1012.8 |
| 20260507225608 | 59 | 303 | 1.0 | 3.0 | 0.00 | 0.03 | 0.03 | 43 | 1012.9 |
| 20260507225105 | 60 | 304 | 1.0 | 1.0 | 0.00 | 0.03 | 0.03 | 46 | 1012.5 |
| 20260507224600 | 60 | 275 | 1.0 | 3.0 | 0.00 | 0.03 | 0.03 | 43 | 1012.8 |
| 20260507224057 | 60 | 293 | 4.0 | 8.0 | 0.00 | 0.03 | 0.03 | 40 | 1012.5 |
| 20260507223554 | 63 | 311 | 2.0 | 3.0 | 0.00 | 0.03 | 0.03 | 42 | 1012.3 |
| 20260507223051 | 63 | 291 | 1.0 | 4.0 | 0.00 | 0.03 | 0.03 | 43 | 1012.4 |
| 20260507222548 | 63 | 327 | 5.0 | 7.0 | 0.00 | 0.03 | 0.03 | 37 | 1012.3 |
| 20260507222044 | 63 | 332 | 3.0 | 3.0 | 0.00 | 0.03 | 0.03 | 36 | 1012.3 |
| 20260507221540 | 62 | 248 | 2.0 | 7.0 | 0.00 | 0.03 | 0.03 | 38 | 1012.5 |
| 20260507221037 | 61 | 296 | 2.0 | 8.0 | 0.00 | 0.03 | 0.03 | 42 | 1012.5 |
| 20260507220535 | 62 | 348 | 0.0 | 2.0 | 0.00 | 0.03 | 0.03 | 41 | 1012.3 |
| 20260507220032 | 60 | 282 | 1.0 | 3.0 | 0.00 | 0.03 | 0.03 | 42 | 1012.2 |
| 20260507215528 | 61 | 280 | 1.0 | 3.0 | 0.00 | 0.03 | 0.03 | 43 | 1012.1 |
| 20260507215026 | 61 | 287 | 1.0 | 7.0 | 0.00 | 0.03 | 0.03 | 41 | 1012.1 |
| 20260507214523 | 62 | 317 | 2.0 | 2.0 | 0.00 | 0.03 | 0.03 | 44 | 1011.8 |
| 20260507214019 | 61 | 300 | 2.0 | 4.0 | 0.00 | 0.03 | 0.03 | 40 | 1011.9 |
| 20260507213515 | 61 | 302 | 1.0 | 3.0 | 0.00 | 0.03 | 0.03 | 42 | 1011.9 |
| 20260507213012 | 62 | 305 | 2.0 | 3.0 | 0.00 | 0.03 | 0.03 | 42 | 1012.0 |
| 20260507212508 | 62 | 190 | 1.0 | 2.0 | 0.00 | 0.03 | 0.03 | 39 | 1011.8 |
| 20260507212005 | 64 | 223 | 3.0 | 6.0 | 0.00 | 0.03 | 0.03 | 42 | 1012.0 |
| 20260507211502 | 64 | 240 | 1.0 | 4.0 | 0.00 | 0.03 | 0.03 | 40 | 1011.8 |
| 20260507210958 | 65 | 252 | 2.0 | 4.0 | 0.00 | 0.03 | 0.03 | 40 | 1011.7 |
| 20260507210455 | 63 | 276 | 2.0 | 3.0 | 0.00 | 0.03 | 0.03 | 42 | 1011.5 |
| 20260507205952 | 62 | 307 | 4.0 | 9.0 | 0.00 | 0.03 | 0.03 | 47 | 1011.7 |
| 20260507205449 | 65 | 300 | 4.0 | 6.0 | 0.00 | 0.03 | 0.03 | 42 | 1011.7 |
| 20260507204945 | 63 | 330 | 5.0 | 8.0 | 0.00 | 0.03 | 0.03 | 46 | 1011.9 |
| 20260507204442 | 64 | 110 | 0.0 | 4.0 | 0.00 | 0.03 | 0.03 | 40 | 1011.9 |
| 20260507203939 | 62 | 307 | 2.0 | 3.0 | 0.00 | 0.03 | 0.03 | 45 | 1011.5 |
| 20260507203437 | 62 | 351 | 1.0 | 3.0 | 0.00 | 0.03 | 0.03 | 41 | 1011.8 |
| 20260507202933 | 61 | 291 | 1.0 | 2.0 | 0.00 | 0.03 | 0.03 | 47 | 1011.6 |
| 20260507202430 | 61 | 311 | 2.0 | 3.0 | 0.00 | 0.03 | 0.03 | 46 | 1011.6 |
| 20260507201927 | 64 | 298 | 3.0 | 6.0 | 0.00 | 0.03 | 0.03 | 46 | 1011.5 |
| 20260507201421 | 63 | 304 | 2.0 | 6.0 | 0.00 | 0.03 | 0.03 | 47 | 1011.5 |
| 20260507200918 | 62 | 231 | 1.0 | 8.0 | 0.00 | 0.03 | 0.03 | 40 | 1011.8 |
| 20260507200414 | 63 | 281 | 3.0 | 7.0 | 0.00 | 0.03 | 0.03 | 41 | 1011.8 |
| 20260507195910 | 63 | 278 | 1.0 | 6.0 | 0.00 | 0.03 | 0.03 | 41 | 1012.1 |
| 20260507195408 | 64 | 285 | 6.0 | 8.0 | 0.00 | 0.03 | 0.03 | 42 | 1012.0 |
| 20260507194904 | 64 | 302 | 2.0 | 6.0 | 0.00 | 0.03 | 0.03 | 42 | 1012.1 |
| 20260507194401 | 61 | 315 | 2.0 | 2.0 | 0.00 | 0.03 | 0.03 | 49 | 1012.5 |
| 20260507193857 | 61 | 307 | 3.0 | 3.0 | 0.00 | 0.03 | 0.03 | 48 | 1012.2 |
| 20260507193354 | 60 | 304 | 2.0 | 3.0 | 0.00 | 0.03 | 0.03 | 48 | 1012.5 |
| 20260507192851 | 62 | 275 | 2.0 | 3.0 | 0.00 | 0.03 | 0.03 | 47 | 1012.5 |
| 20260507192347 | 63 | 260 | 3.0 | 7.0 | 0.00 | 0.03 | 0.03 | 44 | 1012.5 |
| 20260507191843 | 61 | 323 | 2.0 | 4.0 | 0.00 | 0.03 | 0.03 | 47 | 1012.4 |
| 20260507191340 | 62 | 295 | 1.0 | 3.0 | 0.00 | 0.03 | 0.03 | 45 | 1012.4 |
| 20260507190837 | 61 | 286 | 3.0 | 6.0 | 0.00 | 0.03 | 0.03 | 50 | 1012.5 |
| 20260507190335 | 61 | 153 | 0.0 | 3.0 | 0.00 | 0.03 | 0.03 | 45 | 1012.5 |
| 20260507185834 | 63 | 326 | 1.0 | 7.0 | 0.00 | 0.03 | 0.03 | 45 | 1012.6 |
| 20260507185330 | 64 | 317 | 4.0 | 6.0 | 0.00 | 0.03 | 0.03 | 44 | 1012.3 |
| 20260507184827 | 64 | 290 | 3.0 | 6.0 | 0.00 | 0.03 | 0.03 | 46 | 1012.5 |
| 20260507184325 | 64 | 337 | 3.0 | 7.0 | 0.00 | 0.03 | 0.03 | 46 | 1012.4 |
| 20260507183822 | 63 | 324 | 2.0 | 4.0 | 0.00 | 0.03 | 0.03 | 43 | 1012.5 |
| 20260507183319 | 62 | 324 | 3.0 | 8.0 | 0.00 | 0.03 | 0.03 | 50 | 1012.4 |
| 20260507182817 | 60 | 312 | 1.0 | 2.0 | 0.00 | 0.03 | 0.03 | 46 | 1012.3 |
| 20260507182313 | 62 | 323 | 1.0 | 6.0 | 0.00 | 0.03 | 0.03 | 43 | 1012.5 |
| 20260507181809 | 63 | 325 | 6.0 | 8.0 | 0.00 | 0.03 | 0.03 | 49 | 1012.8 |
| 20260507181305 | 63 | 113 | 2.0 | 2.0 | 0.00 | 0.03 | 0.03 | 45 | 1012.5 |
| 20260507180801 | 63 | 263 | 2.0 | 3.0 | 0.00 | 0.03 | 0.03 | 46 | 1012.6 |
| 20260507180259 | 64 | 282 | 1.0 | 3.0 | 0.00 | 0.03 | 0.03 | 46 | 1012.9 |
| 20260507175754 | 62 | 299 | 2.0 | 4.0 | 0.00 | 0.03 | 0.03 | 48 | 1012.8 |
| 20260507175251 | 61 | 257 | 2.0 | 4.0 | 0.00 | 0.03 | 0.03 | 53 | 1012.8 |
| 20260507174748 | 61 | 318 | 4.0 | 4.0 | 0.00 | 0.03 | 0.03 | 54 | 1012.5 |
| 20260507174246 | 62 | 322 | 1.0 | 2.0 | 0.00 | 0.03 | 0.03 | 47 | 1013.1 |
| 20260507173744 | 61 | 302 | 3.0 | 6.0 | 0.00 | 0.03 | 0.03 | 50 | 1012.9 |
| 20260507173241 | 63 | 320 | 1.0 | 4.0 | 0.00 | 0.03 | 0.03 | 45 | 1013.1 |
| 20260507172737 | 62 | 322 | 2.0 | 6.0 | 0.00 | 0.03 | 0.03 | 44 | 1013.3 |
| 20260507172234 | 61 | 309 | 4.0 | 6.0 | 0.00 | 0.03 | 0.03 | 52 | 1013.0 |
| 20260507171734 | 62 | 316 | 4.0 | 6.0 | 0.00 | 0.03 | 0.03 | 47 | 1013.4 |
| 20260507171232 | 62 | 337 | 0.0 | 3.0 | 0.00 | 0.03 | 0.03 | 45 | 1013.2 |
| 20260507170728 | 61 | 271 | 3.0 | 7.0 | 0.00 | 0.03 | 0.03 | 49 | 1013.2 |
| 20260507170225 | 61 | 163 | 2.0 | 4.0 | 0.00 | 0.03 | 0.03 | 46 | 1013.3 |
| 20260507165721 | 60 | 297 | 1.0 | 6.0 | 0.00 | 0.03 | 0.03 | 52 | 1013.4 |
| 20260507165217 | 60 | 194 | 0.0 | 3.0 | 0.00 | 0.03 | 0.03 | 48 | 1013.5 |
| 20260507164713 | 60 | 30 | 3.0 | 4.0 | 0.00 | 0.03 | 0.03 | 52 | 1013.5 |
| 20260507164211 | 61 | 90 | 2.0 | 2.0 | 0.00 | 0.03 | 0.03 | 47 | 1013.6 |
| 20260507163708 | 59 | 98 | 0.0 | 8.0 | 0.00 | 0.03 | 0.03 | 53 | 1013.7 |
| 20260507163206 | 59 | 67 | 2.0 | 3.0 | 0.00 | 0.03 | 0.03 | 46 | 1013.6 |
| 20260507162702 | 57 | 222 | 2.0 | 3.0 | 0.00 | 0.03 | 0.03 | 50 | 1013.7 |
| 20260507162158 | 59 | 295 | 2.0 | 4.0 | 0.00 | 0.03 | 0.03 | 52 | 1013.7 |
| 20260507161654 | 58 | 321 | 2.0 | 4.0 | 0.00 | 0.03 | 0.03 | 48 | 1013.9 |
| 20260507161151 | 59 | 301 | 1.0 | 3.0 | 0.00 | 0.03 | 0.03 | 51 | 1013.8 |
| 20260507160647 | 59 | 91 | 2.0 | 6.0 | 0.00 | 0.03 | 0.03 | 46 | 1013.9 |
| 20260507160144 | 59 | 207 | 1.0 | 3.0 | 0.00 | 0.03 | 0.03 | 51 | 1014.1 |
| 20260507155639 | 60 | 30 | 1.0 | 3.0 | 0.00 | 0.03 | 0.03 | 47 | 1014.0 |
| 20260507155136 | 59 | 292 | 2.0 | 4.0 | 0.00 | 0.03 | 0.03 | 51 | 1013.9 |
| 20260507154632 | 59 | 319 | 2.0 | 3.0 | 0.00 | 0.03 | 0.03 | 51 | 1014.2 |
| 20260507154130 | 58 | 62 | 0.0 | 1.0 | 0.00 | 0.03 | 0.03 | 56 | 1014.2 |
| 20260507153626 | 58 | 146 | 2.0 | 3.0 | 0.00 | 0.03 | 0.03 | 53 | 1014.1 |
| 20260507153123 | 57 | 291 | 3.0 | 3.0 | 0.00 | 0.03 | 0.03 | 58 | 1014.2 |
| 20260507152619 | 58 | 304 | 0.0 | 4.0 | 0.00 | 0.03 | 0.03 | 56 | 1014.4 |
| 20260507152115 | 59 | 181 | 0.0 | 2.0 | 0.00 | 0.03 | 0.03 | 54 | 1014.2 |
| 20260507151611 | 57 | 242 | 2.0 | 3.0 | 0.00 | 0.03 | 0.03 | 53 | 1014.2 |
| 20260507151109 | 58 | 326 | 1.0 | 3.0 | 0.00 | 0.03 | 0.03 | 51 | 1014.3 |
| 20260507150606 | 58 | 333 | 3.0 | 4.0 | 0.00 | 0.03 | 0.03 | 54 | 1014.3 |
| 20260507145557 | 57 | 230 | 3.0 | 4.0 | 0.00 | 0.03 | 0.03 | 53 | 1014.3 |
| 20260507145055 | 56 | 267 | 0.0 | 3.0 | 0.00 | 0.03 | 0.03 | 55 | 1014.4 |
| 20260507144551 | 58 | 320 | 1.0 | 3.0 | 0.00 | 0.03 | 0.03 | 55 | 1014.5 |
| 20260507144050 | 60 | 81 | 0.0 | 3.0 | 0.00 | 0.03 | 0.03 | 58 | 1014.4 |
| 20260507143546 | 58 | 70 | 3.0 | 4.0 | 0.00 | 0.03 | 0.03 | 56 | 1014.7 |
| 20260507143045 | 58 | 221 | 1.0 | 3.0 | 0.00 | 0.03 | 0.03 | 58 | 1014.7 |
| 20260507142544 | 58 | 42 | 0.0 | 3.0 | 0.00 | 0.03 | 0.03 | 57 | 1014.7 |
| 20260507142042 | 56 | 152 | 0.0 | 4.0 | 0.00 | 0.03 | 0.03 | 54 | 1014.9 |
| 20260507141537 | 56 | 308 | 3.0 | 4.0 | 0.00 | 0.03 | 0.03 | 56 | 1014.8 |
| 20260507141034 | 56 | 267 | 3.0 | 3.0 | 0.00 | 0.03 | 0.03 | 58 | 1015.1 |
| 20260507140531 | 56 | 146 | 2.0 | 2.0 | 0.00 | 0.03 | 0.03 | 62 | 1015.2 |
| 20260507140029 | 58 | 195 | 0.0 | 0.0 | 0.00 | 0.03 | 0.03 | 64 | 1015.2 |
| 20260507135525 | 57 | 316 | 2.0 | 3.0 | 0.00 | 0.03 | 0.03 | 68 | 1015.2 |
| 20260507135023 | 56 | 148 | 1.0 | 2.0 | 0.00 | 0.03 | 0.03 | 71 | 1015.1 |
| 20260507134519 | 56 | 316 | 2.0 | 2.0 | 0.00 | 0.03 | 0.03 | 69 | 1015.2 |
| 20260507134015 | 56 | 325 | 1.0 | 1.0 | 0.00 | 0.03 | 0.03 | 70 | 1015.2 |
| 20260507133511 | 55 | 134 | 1.0 | 1.0 | 0.00 | 0.03 | 0.03 | 70 | 1015.2 |
| 20260507133010 | 55 | 107 | 2.0 | 3.0 | 0.00 | 0.03 | 0.03 | 73 | 1015.3 |
| 20260507132506 | 54 | 278 | 0.0 | 0.0 | 0.00 | 0.03 | 0.03 | 81 | 1015.3 |
| 20260507132002 | 54 | 350 | 1.0 | 1.0 | 0.00 | 0.03 | 0.03 | 80 | 1015.4 |
| 20260507131459 | 55 | 334 | 0.0 | 1.0 | 0.00 | 0.03 | 0.03 | 78 | 1015.3 |
| 20260507130956 | 56 | 137 | 1.0 | 2.0 | 0.00 | 0.03 | 0.03 | 76 | 1015.3 |
| 20260507130453 | 55 | 182 | 0.0 | 1.0 | 0.00 | 0.03 | 0.03 | 77 | 1015.5 |
| 20260507125952 | 52 | 59 | 0.0 | 2.0 | 0.00 | 0.03 | 0.03 | 84 | 1015.6 |
| 20260507125449 | 55 | 120 | 0.0 | 0.0 | 0.00 | 0.03 | 0.03 | 80 | 1015.4 |
| 20260507124946 | 53 | 294 | 0.0 | 0.0 | 0.00 | 0.03 | 0.03 | 84 | 1015.5 |
| 20260507124443 | 50 | 295 | 0.0 | 0.0 | 0.00 | 0.03 | 0.03 | 91 | 1015.4 |
| 20260507123941 | 50 | 292 | 0.0 | 0.0 | 0.00 | 0.03 | 0.03 | 90 | 1015.3 |
| 20260507123438 | 50 | 306 | 0.0 | 0.0 | 0.00 | 0.03 | 0.03 | 91 | 1015.4 |
| 20260507122934 | 50 | 296 | 0.0 | 0.0 | 0.00 | 0.03 | 0.03 | 92 | 1015.6 |
| 20260507122430 | 50 | 301 | 0.0 | 0.0 | 0.00 | 0.03 | 0.03 | 92 | 1015.4 |
| 20260507121926 | 49 | 286 | 0.0 | 0.0 | 0.00 | 0.03 | 0.03 | 93 | 1015.5 |
| 20260507121421 | 49 | 294 | 0.0 | 0.0 | 0.00 | 0.03 | 0.03 | 94 | 1015.5 |
| 20260507120919 | 49 | 332 | 0.0 | 0.0 | 0.00 | 0.03 | 0.03 | 94 | 1015.4 |
| 20260507120415 | 49 | 313 | 0.0 | 0.0 | 0.00 | 0.03 | 0.03 | 96 | 1015.5 |
| 20260507115911 | 49 | 274 | 0.0 | 0.0 | 0.00 | 0.03 | 0.03 | 97 | 1015.7 |
| 20260507115407 | 48 | 325 | 0.0 | 0.0 | 0.00 | 0.03 | 0.03 | 98 | 1015.4 |
| 20260507114903 | 48 | 351 | 0.0 | 0.0 | 0.00 | 0.03 | 0.03 | 98 | 1015.3 |
| 20260507114400 | 48 | 343 | 0.0 | 0.0 | 0.00 | 0.03 | 0.03 | 98 | 1015.2 |
| 20260507113857 | 48 | 340 | 0.0 | 0.0 | 0.00 | 0.03 | 0.03 | 99 | 1015.2 |
| 20260507113354 | 48 | 340 | 0.0 | 0.0 | 0.00 | 0.03 | 0.03 | 99 | 1015.1 |
| 20260507112852 | 48 | 340 | 0.0 | 0.0 | 0.00 | 0.03 | 0.03 | 99 | 1014.8 |
| 20260507112349 | 48 | 340 | 0.0 | 0.0 | 0.00 | 0.03 | 0.03 | 99 | 1015.0 |
| 20260507111846 | 48 | 333 | 0.0 | 0.0 | 0.00 | 0.03 | 0.03 | 99 | 1014.9 |
| 20260507111343 | 48 | 332 | 0.0 | 0.0 | 0.00 | 0.03 | 0.03 | 99 | 1015.0 |
| 20260507110839 | 47 | 332 | 0.0 | 0.0 | 0.00 | 0.03 | 0.03 | 99 | 1014.7 |
| 20260507110335 | 47 | 329 | 0.0 | 0.0 | 0.00 | 0.03 | 0.03 | 99 | 1014.8 |
| 20260507105832 | 47 | 329 | 0.0 | 0.0 | 0.00 | 0.03 | 0.03 | 99 | 1014.7 |
| 20260507105329 | 47 | 329 | 0.0 | 0.0 | 0.00 | 0.03 | 0.03 | 99 | 1014.7 |
| 20260507104826 | 47 | 329 | 0.0 | 0.0 | 0.00 | 0.03 | 0.03 | 99 | 1014.7 |
| 20260507104322 | 47 | 329 | 0.0 | 0.0 | 0.00 | 0.03 | 0.03 | 99 | 1014.6 |
| 20260507103818 | 47 | 329 | 0.0 | 0.0 | 0.00 | 0.03 | 0.03 | 99 | 1014.6 |
| 20260507103315 | 47 | 329 | 0.0 | 0.0 | 0.00 | 0.03 | 0.03 | 99 | 1014.5 |
| 20260507102811 | 47 | 329 | 0.0 | 0.0 | 0.00 | 0.03 | 0.03 | 99 | 1014.7 |
| 20260507102308 | 47 | 329 | 0.0 | 0.0 | 0.00 | 0.03 | 0.03 | 99 | 1014.6 |
| 20260507101805 | 47 | 330 | 0.0 | 0.0 | 0.00 | 0.03 | 0.03 | 99 | 1014.5 |
| 20260507101305 | 47 | 330 | 0.0 | 0.0 | 0.00 | 0.03 | 0.03 | 99 | 1014.5 |
| 20260507100802 | 47 | 330 | 0.0 | 0.0 | 0.00 | 0.03 | 0.03 | 99 | 1014.4 |
| 20260507100300 | 47 | 330 | 0.0 | 0.0 | 0.00 | 0.03 | 0.03 | 98 | 1014.5 |
| 20260507095758 | 47 | 330 | 0.0 | 0.0 | 0.00 | 0.03 | 0.03 | 98 | 1014.4 |
| 20260507095254 | 47 | 330 | 0.0 | 0.0 | 0.00 | 0.03 | 0.03 | 98 | 1014.4 |
| 20260507094751 | 48 | 330 | 0.0 | 0.0 | 0.00 | 0.03 | 0.03 | 98 | 1014.2 |
| 20260507094248 | 48 | 330 | 0.0 | 0.0 | 0.00 | 0.03 | 0.03 | 98 | 1014.2 |
| 20260507093745 | 48 | 330 | 0.0 | 0.0 | 0.00 | 0.03 | 0.03 | 98 | 1014.3 |
| 20260507093244 | 48 | 330 | 0.0 | 0.0 | 0.00 | 0.03 | 0.03 | 98 | 1014.2 |
| 20260507092741 | 48 | 330 | 0.0 | 0.0 | 0.00 | 0.03 | 0.03 | 98 | 1014.4 |
| 20260507092237 | 48 | 330 | 0.0 | 0.0 | 0.00 | 0.03 | 0.03 | 98 | 1014.4 |
| 20260507091733 | 49 | 329 | 0.0 | 0.0 | 0.00 | 0.03 | 0.03 | 98 | 1014.4 |
| 20260507091230 | 48 | 330 | 0.0 | 0.0 | 0.00 | 0.03 | 0.03 | 98 | 1014.2 |
| 20260507090725 | 48 | 330 | 0.0 | 0.0 | 0.00 | 0.03 | 0.03 | 98 | 1014.2 |
| 20260507090222 | 49 | 330 | 0.0 | 0.0 | 0.00 | 0.03 | 0.03 | 98 | 1014.2 |
| 20260507085719 | 49 | 330 | 0.0 | 0.0 | 0.00 | 0.03 | 0.03 | 98 | 1014.2 |
| 20260507085216 | 49 | 330 | 0.0 | 0.0 | 0.00 | 0.03 | 0.03 | 98 | 1014.1 |
| 20260507084713 | 49 | 330 | 0.0 | 0.0 | 0.00 | 0.03 | 0.03 | 98 | 1014.2 |
| 20260507084209 | 49 | 330 | 0.0 | 0.0 | 0.00 | 0.03 | 0.03 | 98 | 1014.3 |
| 20260507083707 | 49 | 330 | 0.0 | 0.0 | 0.00 | 0.03 | 0.03 | 98 | 1014.3 |
| 20260507083203 | 49 | 330 | 0.0 | 0.0 | 0.00 | 0.03 | 0.03 | 98 | 1014.3 |
| 20260507082659 | 49 | 330 | 0.0 | 0.0 | 0.00 | 0.03 | 0.03 | 98 | 1014.3 |
| 20260507082155 | 49 | 330 | 0.0 | 0.0 | 0.00 | 0.03 | 0.03 | 98 | 1014.2 |
| 20260507081652 | 49 | 330 | 0.0 | 0.0 | 0.00 | 0.03 | 0.03 | 98 | 1014.2 |
| 20260507081149 | 49 | 330 | 0.0 | 0.0 | 0.00 | 0.03 | 0.03 | 98 | 1014.2 |
| 20260507080646 | 49 | 330 | 0.0 | 0.0 | 0.00 | 0.03 | 0.03 | 98 | 1014.1 |
| 20260507080142 | 49 | 330 | 0.0 | 0.0 | 0.00 | 0.03 | 0.03 | 98 | 1014.1 |
| 20260507075636 | 49 | 330 | 0.0 | 0.0 | 0.00 | 0.03 | 0.03 | 98 | 1014.2 |
| 20260507075133 | 49 | 334 | 0.0 | 0.0 | 0.00 | 0.03 | 0.03 | 98 | 1014.3 |
| 20260507074630 | 49 | 328 | 0.0 | 0.0 | 0.00 | 0.03 | 0.03 | 98 | 1014.4 |
| 20260507074128 | 49 | 327 | 0.0 | 0.0 | 0.00 | 0.03 | 0.03 | 98 | 1014.5 |
| 20260507073624 | 49 | 327 | 0.0 | 0.0 | 0.00 | 0.03 | 0.03 | 98 | 1014.5 |
| 20260507073120 | 49 | 326 | 0.0 | 0.0 | 0.00 | 0.03 | 0.03 | 98 | 1014.4 |
| 20260507072618 | 49 | 326 | 0.0 | 0.0 | 0.00 | 0.03 | 0.03 | 98 | 1014.6 |
| 20260507072115 | 49 | 326 | 0.0 | 0.0 | 0.00 | 0.03 | 0.03 | 98 | 1014.2 |
| 20260507071613 | 49 | 326 | 0.0 | 0.0 | 0.00 | 0.03 | 0.03 | 98 | 1014.4 |
| 20260507071109 | 49 | 326 | 0.0 | 0.0 | 0.00 | 0.03 | 0.03 | 98 | 1014.2 |
| 20260507070606 | 49 | 327 | 0.0 | 0.0 | 0.00 | 0.03 | 0.03 | 98 | 1014.5 |
| 20260507065559 | 50 | 332 | 0.0 | 0.0 | 0.00 | 0.03 | 0.03 | 98 | 1014.4 |
| 20260507065057 | 49 | 11 | 0.0 | 0.0 | 0.00 | 0.03 | 0.03 | 97 | 1014.2 |
| 20260507064554 | 49 | 24 | 0.0 | 0.0 | 0.00 | 0.03 | 0.03 | 97 | 1014.0 |
| 20260507064053 | 49 | 24 | 0.0 | 0.0 | 0.00 | 0.03 | 0.03 | 97 | 1014.2 |
| 20260507063550 | 49 | 26 | 0.0 | 0.0 | 0.00 | 0.03 | 0.03 | 97 | 1014.4 |
| 20260507063047 | 49 | 50 | 0.0 | 0.0 | 0.00 | 0.03 | 0.03 | 97 | 1014.2 |
| 20260507062543 | 49 | 50 | 0.0 | 0.0 | 0.00 | 0.03 | 0.03 | 97 | 1014.3 |
| 20260507062041 | 49 | 49 | 0.0 | 0.0 | 0.00 | 0.03 | 0.03 | 96 | 1014.3 |
| 20260507061538 | 49 | 50 | 0.0 | 0.0 | 0.00 | 0.03 | 0.03 | 96 | 1014.3 |
| 20260507061037 | 49 | 29 | 0.0 | 0.0 | 0.00 | 0.03 | 0.03 | 95 | 1014.3 |
| 20260507060534 | 50 | 307 | 0.0 | 0.0 | 0.00 | 0.03 | 0.03 | 96 | 1014.3 |
| 20260507060031 | 50 | 351 | 0.0 | 0.0 | 0.00 | 0.03 | 0.03 | 96 | 1014.4 |
| 20260507055531 | 50 | 297 | 0.0 | 0.0 | 0.00 | 0.03 | 0.03 | 96 | 1014.6 |
| 20260507055028 | 50 | 307 | 0.0 | 0.0 | 0.00 | 0.03 | 0.03 | 97 | 1014.7 |
| 20260507054524 | 50 | 316 | 0.0 | 0.0 | 0.00 | 0.03 | 0.03 | 97 | 1014.8 |
| 20260507054021 | 50 | 291 | 0.0 | 2.0 | 0.00 | 0.03 | 0.03 | 96 | 1014.6 |
| 20260507053519 | 50 | 323 | 2.0 | 2.0 | 0.00 | 0.03 | 0.03 | 97 | 1014.6 |
| 20260507053017 | 50 | 321 | 0.0 | 1.0 | 0.00 | 0.03 | 0.03 | 97 | 1014.9 |
| 20260507052515 | 50 | 315 | 0.0 | 1.0 | 0.05 | 0.03 | 0.03 | 97 | 1014.5 |
| 20260507052011 | 50 | 297 | 0.0 | 2.0 | 0.05 | 0.03 | 0.03 | 97 | 1014.6 |
| 20260507051509 | 51 | 323 | 1.0 | 2.0 | 0.00 | 0.02 | 0.02 | 97 | 1014.9 |
| 20260507051006 | 51 | 301 | 1.0 | 2.0 | 0.00 | 0.02 | 0.02 | 97 | 1014.8 |
| 20260507050502 | 51 | 308 | 0.0 | 0.0 | 0.00 | 0.02 | 0.02 | 97 | 1014.7 |
| 20260507045959 | 51 | 256 | 0.0 | 0.0 | 0.00 | 0.02 | 0.02 | 97 | 1014.7 |
| 20260507045455 | 51 | 256 | 0.0 | 0.0 | 0.00 | 0.02 | 0.02 | 96 | 1014.5 |
| 20260507044953 | 51 | 249 | 0.0 | 0.0 | 0.00 | 0.02 | 0.02 | 96 | 1014.8 |
| 20260507044449 | 51 | 269 | 0.0 | 0.0 | 0.00 | 0.02 | 0.02 | 96 | 1014.6 |
| 20260507043945 | 51 | 271 | 0.0 | 0.0 | 0.00 | 0.02 | 0.02 | 96 | 1014.7 |